sensor_id;sensor_type;location;lat;lon;timestamp;P1;durP1;ratioP1;P2;durP2;ratioP2
21014;SDS011;19207;-23.482;-46.500;2022-11-20T00:00:34;14.10;;;4.35;;
21014;SDS011;19207;-23.482;-46.500;2022-11-20T00:03:21;13.52;;;5.45;;
21014;SDS011;19207;-23.482;-46.500;2022-11-20T00:06:09;12.68;;;4.50;;
21014;SDS011;19207;-23.482;-46.500;2022-11-20T00:08:57;12.45;;;4.43;;
21014;SDS011;19207;-23.482;-46.500;2022-11-20T00:11:44;10.43;;;4.05;;
21014;SDS011;19207;-23.482;-46.500;2022-11-20T00:14:31;16.17;;;3.92;;
21014;SDS011;19207;-23.482;-46.500;2022-11-20T00:17:18;13.73;;;4.62;;
21014;SDS011;19207;-23.482;-46.500;2022-11-20T00:20:05;14.15;;;5.53;;
21014;SDS011;19207;-23.482;-46.500;2022-11-20T00:22:51;11.68;;;4.93;;
21014;SDS011;19207;-23.482;-46.500;2022-11-20T00:25:38;18.65;;;4.65;;
21014;SDS011;19207;-23.482;-46.500;2022-11-20T00:28:25;16.42;;;4.22;;
21014;SDS011;19207;-23.482;-46.500;2022-11-20T00:31:12;8.95;;;3.70;;
21014;SDS011;19207;-23.482;-46.500;2022-11-20T00:34:00;7.62;;;3.55;;
21014;SDS011;19207;-23.482;-46.500;2022-11-20T00:36:46;8.57;;;3.87;;
21014;SDS011;19207;-23.482;-46.500;2022-11-20T00:39:33;11.07;;;3.70;;
21014;SDS011;19207;-23.482;-46.500;2022-11-20T00:42:20;9.18;;;4.10;;
21014;SDS011;19207;-23.482;-46.500;2022-11-20T00:45:06;12.37;;;5.07;;
21014;SDS011;19207;-23.482;-46.500;2022-11-20T00:47:53;11.70;;;4.32;;
21014;SDS011;19207;-23.482;-46.500;2022-11-20T00:50:40;15.45;;;3.83;;
21014;SDS011;19207;-23.482;-46.500;2022-11-20T00:53:27;13.23;;;4.15;;
21014;SDS011;19207;-23.482;-46.500;2022-11-20T00:56:15;13.65;;;4.18;;
21014;SDS011;19207;-23.482;-46.500;2022-11-20T00:59:01;10.98;;;4.37;;
21014;SDS011;19207;-23.482;-46.500;2022-11-20T01:01:48;14.02;;;4.80;;
21014;SDS011;19207;-23.482;-46.500;2022-11-20T01:04:34;15.27;;;4.00;;
21014;SDS011;19207;-23.482;-46.500;2022-11-20T01:07:21;11.20;;;4.25;;
21014;SDS011;19207;-23.482;-46.500;2022-11-20T01:10:08;12.05;;;3.83;;
21014;SDS011;19207;-23.482;-46.500;2022-11-20T01:12:55;12.60;;;3.70;;
21014;SDS011;19207;-23.482;-46.500;2022-11-20T01:19:11;16.30;;;4.12;;
21014;SDS011;19207;-23.482;-46.500;2022-11-20T01:21:58;9.85;;;3.60;;
21014;SDS011;19207;-23.482;-46.500;2022-11-20T01:24:44;10.65;;;4.05;;
21014;SDS011;19207;-23.482;-46.500;2022-11-20T01:27:31;16.23;;;4.00;;
21014;SDS011;19207;-23.482;-46.500;2022-11-20T01:30:19;9.20;;;4.00;;
21014;SDS011;19207;-23.482;-46.500;2022-11-20T01:33:06;14.07;;;3.70;;
21014;SDS011;19207;-23.482;-46.500;2022-11-20T01:35:53;14.35;;;4.05;;
21014;SDS011;19207;-23.482;-46.500;2022-11-20T01:38:56;22.45;;;4.60;;
21014;SDS011;19207;-23.482;-46.500;2022-11-20T01:41:43;16.00;;;4.50;;
21014;SDS011;19207;-23.482;-46.500;2022-11-20T01:47:36;14.27;;;4.32;;
21014;SDS011;19207;-23.482;-46.500;2022-11-20T01:50:24;14.02;;;4.28;;
21014;SDS011;19207;-23.482;-46.500;2022-11-20T01:53:14;20.05;;;4.53;;
21014;SDS011;19207;-23.482;-46.500;2022-11-20T01:56:04;18.40;;;5.37;;
21014;SDS011;19207;-23.482;-46.500;2022-11-20T01:58:53;12.50;;;4.72;;
21014;SDS011;19207;-23.482;-46.500;2022-11-20T02:01:41;11.98;;;4.50;;
21014;SDS011;19207;-23.482;-46.500;2022-11-20T02:04:27;18.42;;;5.28;;
21014;SDS011;19207;-23.482;-46.500;2022-11-20T02:07:15;16.73;;;7.25;;
21014;SDS011;19207;-23.482;-46.500;2022-11-20T02:10:02;12.52;;;5.82;;
21014;SDS011;19207;-23.482;-46.500;2022-11-20T02:12:48;17.12;;;5.65;;
21014;SDS011;19207;-23.482;-46.500;2022-11-20T02:15:53;25.10;;;5.80;;
21014;SDS011;19207;-23.482;-46.500;2022-11-20T02:18:40;20.30;;;5.60;;
21014;SDS011;19207;-23.482;-46.500;2022-11-20T02:24:19;19.98;;;4.80;;
21014;SDS011;19207;-23.482;-46.500;2022-11-20T02:27:09;16.85;;;5.40;;
21014;SDS011;19207;-23.482;-46.500;2022-11-20T02:29:57;22.75;;;5.30;;
21014;SDS011;19207;-23.482;-46.500;2022-11-20T02:32:45;17.98;;;5.57;;
21014;SDS011;19207;-23.482;-46.500;2022-11-20T02:38:18;17.90;;;5.97;;
21014;SDS011;19207;-23.482;-46.500;2022-11-20T02:41:05;17.83;;;5.90;;
21014;SDS011;19207;-23.482;-46.500;2022-11-20T02:43:52;16.95;;;6.20;;
21014;SDS011;19207;-23.482;-46.500;2022-11-20T02:46:39;25.45;;;7.28;;
21014;SDS011;19207;-23.482;-46.500;2022-11-20T02:49:25;16.48;;;6.53;;
21014;SDS011;19207;-23.482;-46.500;2022-11-20T02:52:12;19.02;;;6.57;;
21014;SDS011;19207;-23.482;-46.500;2022-11-20T02:54:59;19.33;;;6.65;;
21014;SDS011;19207;-23.482;-46.500;2022-11-20T02:57:46;18.25;;;5.68;;
21014;SDS011;19207;-23.482;-46.500;2022-11-20T03:00:32;21.75;;;6.87;;
21014;SDS011;19207;-23.482;-46.500;2022-11-20T03:03:20;15.60;;;5.80;;
21014;SDS011;19207;-23.482;-46.500;2022-11-20T03:06:06;14.35;;;5.95;;
21014;SDS011;19207;-23.482;-46.500;2022-11-20T03:08:54;16.75;;;6.05;;
21014;SDS011;19207;-23.482;-46.500;2022-11-20T03:11:40;15.95;;;5.95;;
21014;SDS011;19207;-23.482;-46.500;2022-11-20T03:14:27;20.73;;;6.53;;
21014;SDS011;19207;-23.482;-46.500;2022-11-20T03:17:14;20.52;;;5.80;;
21014;SDS011;19207;-23.482;-46.500;2022-11-20T03:20:01;15.77;;;5.90;;
21014;SDS011;19207;-23.482;-46.500;2022-11-20T03:22:49;15.23;;;6.10;;
21014;SDS011;19207;-23.482;-46.500;2022-11-20T03:25:35;15.60;;;6.32;;
21014;SDS011;19207;-23.482;-46.500;2022-11-20T03:28:22;17.52;;;7.10;;
21014;SDS011;19207;-23.482;-46.500;2022-11-20T03:31:09;15.13;;;5.87;;
21014;SDS011;19207;-23.482;-46.500;2022-11-20T03:33:57;18.77;;;6.10;;
21014;SDS011;19207;-23.482;-46.500;2022-11-20T03:36:43;12.55;;;5.50;;
21014;SDS011;19207;-23.482;-46.500;2022-11-20T03:39:30;17.70;;;5.70;;
21014;SDS011;19207;-23.482;-46.500;2022-11-20T03:42:17;20.33;;;6.12;;
21014;SDS011;19207;-23.482;-46.500;2022-11-20T03:45:23;10.50;;;5.35;;
21014;SDS011;19207;-23.482;-46.500;2022-11-20T03:48:10;16.37;;;5.85;;
21014;SDS011;19207;-23.482;-46.500;2022-11-20T03:51:13;18.62;;;5.95;;
21014;SDS011;19207;-23.482;-46.500;2022-11-20T03:54:01;26.60;;;5.85;;
21014;SDS011;19207;-23.482;-46.500;2022-11-20T03:56:48;18.27;;;5.47;;
21014;SDS011;19207;-23.482;-46.500;2022-11-20T03:59:35;18.70;;;5.62;;
21014;SDS011;19207;-23.482;-46.500;2022-11-20T04:02:22;18.05;;;5.75;;
21014;SDS011;19207;-23.482;-46.500;2022-11-20T04:05:08;14.38;;;5.75;;
21014;SDS011;19207;-23.482;-46.500;2022-11-20T04:07:55;22.00;;;6.15;;
21014;SDS011;19207;-23.482;-46.500;2022-11-20T04:10:42;25.40;;;6.05;;
21014;SDS011;19207;-23.482;-46.500;2022-11-20T04:13:28;16.92;;;5.95;;
21014;SDS011;19207;-23.482;-46.500;2022-11-20T04:16:15;14.43;;;5.40;;
21014;SDS011;19207;-23.482;-46.500;2022-11-20T04:19:03;12.43;;;5.47;;
21014;SDS011;19207;-23.482;-46.500;2022-11-20T04:21:49;15.93;;;5.85;;
21014;SDS011;19207;-23.482;-46.500;2022-11-20T04:24:36;21.12;;;5.15;;
21014;SDS011;19207;-23.482;-46.500;2022-11-20T04:27:23;16.77;;;5.82;;
21014;SDS011;19207;-23.482;-46.500;2022-11-20T04:30:10;14.80;;;5.40;;
21014;SDS011;19207;-23.482;-46.500;2022-11-20T04:32:57;19.40;;;6.57;;
21014;SDS011;19207;-23.482;-46.500;2022-11-20T04:35:44;19.45;;;6.28;;
21014;SDS011;19207;-23.482;-46.500;2022-11-20T04:38:32;19.40;;;5.87;;
21014;SDS011;19207;-23.482;-46.500;2022-11-20T04:41:21;21.55;;;5.47;;
21014;SDS011;19207;-23.482;-46.500;2022-11-20T04:44:08;22.73;;;6.70;;
21014;SDS011;19207;-23.482;-46.500;2022-11-20T04:46:54;22.33;;;6.37;;
21014;SDS011;19207;-23.482;-46.500;2022-11-20T04:49:41;12.95;;;5.62;;
21014;SDS011;19207;-23.482;-46.500;2022-11-20T04:52:28;18.75;;;5.53;;
21014;SDS011;19207;-23.482;-46.500;2022-11-20T04:55:14;17.58;;;6.22;;
21014;SDS011;19207;-23.482;-46.500;2022-11-20T04:58:02;14.00;;;6.85;;
21014;SDS011;19207;-23.482;-46.500;2022-11-20T05:00:48;18.87;;;5.87;;
21014;SDS011;19207;-23.482;-46.500;2022-11-20T05:03:36;16.33;;;6.40;;
21014;SDS011;19207;-23.482;-46.500;2022-11-20T05:06:23;17.10;;;5.70;;
21014;SDS011;19207;-23.482;-46.500;2022-11-20T05:09:09;13.45;;;6.00;;
21014;SDS011;19207;-23.482;-46.500;2022-11-20T05:11:56;12.60;;;5.70;;
21014;SDS011;19207;-23.482;-46.500;2022-11-20T05:14:43;16.85;;;6.07;;
21014;SDS011;19207;-23.482;-46.500;2022-11-20T05:17:29;18.80;;;6.12;;
21014;SDS011;19207;-23.482;-46.500;2022-11-20T05:20:16;13.68;;;6.00;;
21014;SDS011;19207;-23.482;-46.500;2022-11-20T05:23:03;15.55;;;6.20;;
21014;SDS011;19207;-23.482;-46.500;2022-11-20T05:25:53;14.13;;;6.45;;
21014;SDS011;19207;-23.482;-46.500;2022-11-20T05:28:40;15.73;;;6.95;;
21014;SDS011;19207;-23.482;-46.500;2022-11-20T05:31:27;14.82;;;6.10;;
21014;SDS011;19207;-23.482;-46.500;2022-11-20T05:34:14;15.85;;;5.85;;
21014;SDS011;19207;-23.482;-46.500;2022-11-20T05:37:01;12.65;;;5.70;;
21014;SDS011;19207;-23.482;-46.500;2022-11-20T05:39:49;14.45;;;6.30;;
21014;SDS011;19207;-23.482;-46.500;2022-11-20T05:42:36;18.45;;;5.75;;
21014;SDS011;19207;-23.482;-46.500;2022-11-20T05:45:22;17.50;;;5.78;;
21014;SDS011;19207;-23.482;-46.500;2022-11-20T05:48:09;18.48;;;5.65;;
21014;SDS011;19207;-23.482;-46.500;2022-11-20T05:50:59;21.83;;;6.90;;
21014;SDS011;19207;-23.482;-46.500;2022-11-20T05:53:46;13.38;;;5.32;;
21014;SDS011;19207;-23.482;-46.500;2022-11-20T05:56:32;14.18;;;5.90;;
21014;SDS011;19207;-23.482;-46.500;2022-11-20T05:59:19;11.23;;;4.95;;
21014;SDS011;19207;-23.482;-46.500;2022-11-20T06:02:06;12.73;;;4.55;;
21014;SDS011;19207;-23.482;-46.500;2022-11-20T06:04:53;11.48;;;4.22;;
21014;SDS011;19207;-23.482;-46.500;2022-11-20T06:07:39;13.57;;;4.62;;
21014;SDS011;19207;-23.482;-46.500;2022-11-20T06:10:26;15.57;;;4.87;;
21014;SDS011;19207;-23.482;-46.500;2022-11-20T06:13:13;13.88;;;5.00;;
21014;SDS011;19207;-23.482;-46.500;2022-11-20T06:15:59;14.70;;;5.45;;
21014;SDS011;19207;-23.482;-46.500;2022-11-20T06:18:46;16.75;;;5.37;;
21014;SDS011;19207;-23.482;-46.500;2022-11-20T06:21:33;14.55;;;5.28;;
21014;SDS011;19207;-23.482;-46.500;2022-11-20T06:24:19;14.25;;;5.53;;
21014;SDS011;19207;-23.482;-46.500;2022-11-20T06:27:06;21.48;;;6.00;;
21014;SDS011;19207;-23.482;-46.500;2022-11-20T06:29:53;15.95;;;5.72;;
21014;SDS011;19207;-23.482;-46.500;2022-11-20T06:32:40;19.33;;;6.93;;
21014;SDS011;19207;-23.482;-46.500;2022-11-20T06:35:27;20.25;;;7.05;;
21014;SDS011;19207;-23.482;-46.500;2022-11-20T06:38:15;18.10;;;6.60;;
21014;SDS011;19207;-23.482;-46.500;2022-11-20T06:41:02;17.20;;;7.15;;
21014;SDS011;19207;-23.482;-46.500;2022-11-20T06:43:49;24.45;;;7.78;;
21014;SDS011;19207;-23.482;-46.500;2022-11-20T06:46:36;20.37;;;7.82;;
21014;SDS011;19207;-23.482;-46.500;2022-11-20T06:49:22;25.75;;;8.07;;
21014;SDS011;19207;-23.482;-46.500;2022-11-20T06:52:10;25.88;;;9.30;;
21014;SDS011;19207;-23.482;-46.500;2022-11-20T06:54:57;22.98;;;9.20;;
21014;SDS011;19207;-23.482;-46.500;2022-11-20T06:57:43;20.75;;;8.88;;
21014;SDS011;19207;-23.482;-46.500;2022-11-20T07:00:30;25.98;;;9.30;;
21014;SDS011;19207;-23.482;-46.500;2022-11-20T07:03:16;23.42;;;8.38;;
21014;SDS011;19207;-23.482;-46.500;2022-11-20T07:06:03;26.12;;;9.73;;
21014;SDS011;19207;-23.482;-46.500;2022-11-20T07:08:51;24.33;;;9.38;;
21014;SDS011;19207;-23.482;-46.500;2022-11-20T07:11:37;21.98;;;9.38;;
21014;SDS011;19207;-23.482;-46.500;2022-11-20T07:14:24;21.77;;;9.13;;
21014;SDS011;19207;-23.482;-46.500;2022-11-20T07:17:11;20.92;;;8.95;;
21014;SDS011;19207;-23.482;-46.500;2022-11-20T07:19:57;18.62;;;8.20;;
21014;SDS011;19207;-23.482;-46.500;2022-11-20T07:22:44;17.73;;;8.45;;
21014;SDS011;19207;-23.482;-46.500;2022-11-20T07:25:30;21.52;;;8.20;;
21014;SDS011;19207;-23.482;-46.500;2022-11-20T07:28:17;19.52;;;8.15;;
21014;SDS011;19207;-23.482;-46.500;2022-11-20T07:31:04;15.32;;;8.38;;
21014;SDS011;19207;-23.482;-46.500;2022-11-20T07:33:52;16.77;;;7.20;;
21014;SDS011;19207;-23.482;-46.500;2022-11-20T07:36:39;17.08;;;7.95;;
21014;SDS011;19207;-23.482;-46.500;2022-11-20T07:39:26;17.98;;;8.80;;
21014;SDS011;19207;-23.482;-46.500;2022-11-20T07:42:13;18.20;;;7.78;;
21014;SDS011;19207;-23.482;-46.500;2022-11-20T07:45:00;12.82;;;7.00;;
21014;SDS011;19207;-23.482;-46.500;2022-11-20T07:47:47;15.20;;;7.85;;
21014;SDS011;19207;-23.482;-46.500;2022-11-20T07:50:33;17.37;;;7.07;;
21014;SDS011;19207;-23.482;-46.500;2022-11-20T07:53:20;14.05;;;7.37;;
21014;SDS011;19207;-23.482;-46.500;2022-11-20T07:56:07;23.38;;;7.45;;
21014;SDS011;19207;-23.482;-46.500;2022-11-20T07:58:54;18.33;;;7.40;;
21014;SDS011;19207;-23.482;-46.500;2022-11-20T08:01:41;16.70;;;7.40;;
21014;SDS011;19207;-23.482;-46.500;2022-11-20T08:04:28;20.10;;;7.55;;
21014;SDS011;19207;-23.482;-46.500;2022-11-20T08:07:14;13.25;;;7.22;;
21014;SDS011;19207;-23.482;-46.500;2022-11-20T08:10:01;19.45;;;7.25;;
21014;SDS011;19207;-23.482;-46.500;2022-11-20T08:12:48;15.32;;;7.05;;
21014;SDS011;19207;-23.482;-46.500;2022-11-20T08:15:54;17.62;;;7.60;;
21014;SDS011;19207;-23.482;-46.500;2022-11-20T08:18:40;13.82;;;7.30;;
21014;SDS011;19207;-23.482;-46.500;2022-11-20T08:21:27;16.75;;;7.00;;
21014;SDS011;19207;-23.482;-46.500;2022-11-20T08:24:14;14.00;;;7.43;;
21014;SDS011;19207;-23.482;-46.500;2022-11-20T08:27:01;17.77;;;7.75;;
21014;SDS011;19207;-23.482;-46.500;2022-11-20T08:29:47;16.33;;;7.62;;
21014;SDS011;19207;-23.482;-46.500;2022-11-20T08:32:34;23.40;;;7.47;;
21014;SDS011;19207;-23.482;-46.500;2022-11-20T08:35:22;13.77;;;7.20;;
21014;SDS011;19207;-23.482;-46.500;2022-11-20T08:38:09;16.98;;;8.13;;
21014;SDS011;19207;-23.482;-46.500;2022-11-20T08:40:59;15.35;;;7.68;;
21014;SDS011;19207;-23.482;-46.500;2022-11-20T08:44:06;18.27;;;7.35;;
21014;SDS011;19207;-23.482;-46.500;2022-11-20T08:46:53;27.60;;;9.43;;
21014;SDS011;19207;-23.482;-46.500;2022-11-20T08:49:39;20.08;;;7.90;;
21014;SDS011;19207;-23.482;-46.500;2022-11-20T08:52:26;15.55;;;8.48;;
21014;SDS011;19207;-23.482;-46.500;2022-11-20T08:55:13;19.58;;;8.35;;
21014;SDS011;19207;-23.482;-46.500;2022-11-20T08:58:03;16.35;;;7.35;;
21014;SDS011;19207;-23.482;-46.500;2022-11-20T09:00:49;14.90;;;8.00;;
21014;SDS011;19207;-23.482;-46.500;2022-11-20T09:03:36;18.12;;;8.80;;
21014;SDS011;19207;-23.482;-46.500;2022-11-20T09:06:23;16.17;;;8.73;;
21014;SDS011;19207;-23.482;-46.500;2022-11-20T09:09:09;21.87;;;9.75;;
21014;SDS011;19207;-23.482;-46.500;2022-11-20T09:11:56;23.02;;;9.93;;
21014;SDS011;19207;-23.482;-46.500;2022-11-20T09:14:42;17.02;;;8.73;;
21014;SDS011;19207;-23.482;-46.500;2022-11-20T09:17:29;16.48;;;10.13;;
21014;SDS011;19207;-23.482;-46.500;2022-11-20T09:20:16;24.33;;;10.40;;
21014;SDS011;19207;-23.482;-46.500;2022-11-20T09:23:02;22.55;;;11.73;;
21014;SDS011;19207;-23.482;-46.500;2022-11-20T09:25:50;19.58;;;10.82;;
21014;SDS011;19207;-23.482;-46.500;2022-11-20T09:28:37;15.38;;;9.80;;
21014;SDS011;19207;-23.482;-46.500;2022-11-20T09:31:24;21.67;;;10.30;;
21014;SDS011;19207;-23.482;-46.500;2022-11-20T09:34:11;17.65;;;10.18;;
21014;SDS011;19207;-23.482;-46.500;2022-11-20T09:36:58;16.00;;;9.93;;
21014;SDS011;19207;-23.482;-46.500;2022-11-20T09:39:44;19.33;;;10.43;;
21014;SDS011;19207;-23.482;-46.500;2022-11-20T09:42:34;24.02;;;9.80;;
21014;SDS011;19207;-23.482;-46.500;2022-11-20T09:45:34;23.10;;;9.18;;
21014;SDS011;19207;-23.482;-46.500;2022-11-20T09:51:16;15.45;;;8.00;;
21014;SDS011;19207;-23.482;-46.500;2022-11-20T09:57:00;17.75;;;9.25;;
21014;SDS011;19207;-23.482;-46.500;2022-11-20T09:59:51;15.02;;;8.38;;
21014;SDS011;19207;-23.482;-46.500;2022-11-20T10:03:00;15.35;;;7.85;;
21014;SDS011;19207;-23.482;-46.500;2022-11-20T10:05:48;15.88;;;8.13;;
21014;SDS011;19207;-23.482;-46.500;2022-11-20T10:08:58;18.30;;;7.28;;
21014;SDS011;19207;-23.482;-46.500;2022-11-20T10:14:48;17.35;;;7.22;;
21014;SDS011;19207;-23.482;-46.500;2022-11-20T10:29:34;16.15;;;7.45;;
21014;SDS011;19207;-23.482;-46.500;2022-11-20T10:32:21;18.45;;;7.22;;
21014;SDS011;19207;-23.482;-46.500;2022-11-20T10:35:20;13.70;;;6.70;;
21014;SDS011;19207;-23.482;-46.500;2022-11-20T10:41:23;12.73;;;7.25;;
21014;SDS011;19207;-23.482;-46.500;2022-11-20T10:44:17;17.20;;;6.93;;
21014;SDS011;19207;-23.482;-46.500;2022-11-20T10:47:24;19.05;;;6.93;;
21014;SDS011;19207;-23.482;-46.500;2022-11-20T10:50:13;13.88;;;6.50;;
21014;SDS011;19207;-23.482;-46.500;2022-11-20T10:55:50;14.30;;;6.57;;
21014;SDS011;19207;-23.482;-46.500;2022-11-20T10:58:44;18.73;;;6.78;;
21014;SDS011;19207;-23.482;-46.500;2022-11-20T11:01:39;15.40;;;6.65;;
21014;SDS011;19207;-23.482;-46.500;2022-11-20T11:07:34;13.98;;;6.90;;
21014;SDS011;19207;-23.482;-46.500;2022-11-20T11:13:29;15.95;;;7.10;;
21014;SDS011;19207;-23.482;-46.500;2022-11-20T11:16:23;15.20;;;7.05;;
21014;SDS011;19207;-23.482;-46.500;2022-11-20T11:19:13;15.05;;;7.32;;
21014;SDS011;19207;-23.482;-46.500;2022-11-20T11:22:16;12.80;;;7.00;;
21014;SDS011;19207;-23.482;-46.500;2022-11-20T11:25:04;14.05;;;7.00;;
21014;SDS011;19207;-23.482;-46.500;2022-11-20T11:27:51;11.80;;;7.57;;
21014;SDS011;19207;-23.482;-46.500;2022-11-20T11:30:41;16.17;;;7.15;;
21014;SDS011;19207;-23.482;-46.500;2022-11-20T11:33:29;16.50;;;7.25;;
21014;SDS011;19207;-23.482;-46.500;2022-11-20T11:36:17;20.30;;;6.82;;
21014;SDS011;19207;-23.482;-46.500;2022-11-20T11:39:04;14.50;;;6.85;;
21014;SDS011;19207;-23.482;-46.500;2022-11-20T11:41:51;20.10;;;7.53;;
21014;SDS011;19207;-23.482;-46.500;2022-11-20T11:44:38;14.68;;;7.15;;
21014;SDS011;19207;-23.482;-46.500;2022-11-20T11:47:48;16.50;;;6.78;;
21014;SDS011;19207;-23.482;-46.500;2022-11-20T11:50:36;13.43;;;6.85;;
21014;SDS011;19207;-23.482;-46.500;2022-11-20T11:53:23;17.00;;;7.55;;
21014;SDS011;19207;-23.482;-46.500;2022-11-20T11:56:12;20.30;;;7.00;;
21014;SDS011;19207;-23.482;-46.500;2022-11-20T11:59:00;15.80;;;6.95;;
21014;SDS011;19207;-23.482;-46.500;2022-11-20T12:01:55;12.02;;;6.50;;
21014;SDS011;19207;-23.482;-46.500;2022-11-20T12:04:49;11.93;;;7.00;;
21014;SDS011;19207;-23.482;-46.500;2022-11-20T12:07:45;20.50;;;6.82;;
21014;SDS011;19207;-23.482;-46.500;2022-11-20T12:13:22;19.85;;;7.47;;
21014;SDS011;19207;-23.482;-46.500;2022-11-20T12:16:12;13.07;;;7.15;;
21014;SDS011;19207;-23.482;-46.500;2022-11-20T12:18:59;15.10;;;6.55;;
21014;SDS011;19207;-23.482;-46.500;2022-11-20T12:25:02;12.48;;;6.90;;
21014;SDS011;19207;-23.482;-46.500;2022-11-20T12:39:48;15.82;;;6.80;;
21014;SDS011;19207;-23.482;-46.500;2022-11-20T12:42:49;18.45;;;7.47;;
21014;SDS011;19207;-23.482;-46.500;2022-11-20T12:52:07;18.30;;;7.12;;
21014;SDS011;19207;-23.482;-46.500;2022-11-20T13:01:00;19.48;;;8.63;;
21014;SDS011;19207;-23.482;-46.500;2022-11-20T13:03:50;15.60;;;8.40;;
21014;SDS011;19207;-23.482;-46.500;2022-11-20T13:06:39;14.23;;;7.68;;
21014;SDS011;19207;-23.482;-46.500;2022-11-20T13:09:26;18.62;;;8.05;;
21014;SDS011;19207;-23.482;-46.500;2022-11-20T13:18:00;17.65;;;7.85;;
21014;SDS011;19207;-23.482;-46.500;2022-11-20T13:20:47;21.65;;;8.25;;
21014;SDS011;19207;-23.482;-46.500;2022-11-20T13:23:34;22.70;;;8.73;;
21014;SDS011;19207;-23.482;-46.500;2022-11-20T13:26:22;20.25;;;8.35;;
21014;SDS011;19207;-23.482;-46.500;2022-11-20T13:29:11;18.80;;;9.07;;
21014;SDS011;19207;-23.482;-46.500;2022-11-20T13:34:51;20.83;;;8.35;;
21014;SDS011;19207;-23.482;-46.500;2022-11-20T13:37:38;16.00;;;8.23;;
21014;SDS011;19207;-23.482;-46.500;2022-11-20T13:40:25;16.73;;;8.48;;
21014;SDS011;19207;-23.482;-46.500;2022-11-20T13:46:03;14.35;;;8.02;;
21014;SDS011;19207;-23.482;-46.500;2022-11-20T13:48:51;19.58;;;8.45;;
21014;SDS011;19207;-23.482;-46.500;2022-11-20T13:51:43;24.95;;;8.18;;
21014;SDS011;19207;-23.482;-46.500;2022-11-20T14:00:13;22.92;;;8.07;;
21014;SDS011;19207;-23.482;-46.500;2022-11-20T14:05:56;14.87;;;7.40;;
21014;SDS011;19207;-23.482;-46.500;2022-11-20T14:08:48;15.90;;;7.75;;
21014;SDS011;19207;-23.482;-46.500;2022-11-20T14:11:35;16.48;;;7.40;;
21014;SDS011;19207;-23.482;-46.500;2022-11-20T14:14:23;14.07;;;7.65;;
21014;SDS011;19207;-23.482;-46.500;2022-11-20T14:20:27;19.45;;;7.65;;
21014;SDS011;19207;-23.482;-46.500;2022-11-20T14:23:23;11.10;;;6.93;;
21014;SDS011;19207;-23.482;-46.500;2022-11-20T14:26:11;17.42;;;7.30;;
21014;SDS011;19207;-23.482;-46.500;2022-11-20T14:28:59;16.05;;;7.53;;
21014;SDS011;19207;-23.482;-46.500;2022-11-20T14:31:46;14.95;;;7.00;;
21014;SDS011;19207;-23.482;-46.500;2022-11-20T14:34:35;11.68;;;6.70;;
21014;SDS011;19207;-23.482;-46.500;2022-11-20T14:37:24;19.67;;;6.35;;
21014;SDS011;19207;-23.482;-46.500;2022-11-20T14:43:19;13.48;;;6.80;;
21014;SDS011;19207;-23.482;-46.500;2022-11-20T14:46:07;13.45;;;6.28;;
21014;SDS011;19207;-23.482;-46.500;2022-11-20T14:48:54;12.80;;;6.80;;
21014;SDS011;19207;-23.482;-46.500;2022-11-20T14:51:41;13.10;;;6.03;;
21014;SDS011;19207;-23.482;-46.500;2022-11-20T14:54:28;16.80;;;6.93;;
21014;SDS011;19207;-23.482;-46.500;2022-11-20T14:57:35;12.93;;;6.43;;
21014;SDS011;19207;-23.482;-46.500;2022-11-20T15:00:22;15.88;;;7.07;;
21014;SDS011;19207;-23.482;-46.500;2022-11-20T15:03:14;16.00;;;7.25;;
21014;SDS011;19207;-23.482;-46.500;2022-11-20T15:06:02;11.95;;;6.57;;
21014;SDS011;19207;-23.482;-46.500;2022-11-20T15:08:52;15.63;;;6.93;;
21014;SDS011;19207;-23.482;-46.500;2022-11-20T15:11:38;14.50;;;6.57;;
21014;SDS011;19207;-23.482;-46.500;2022-11-20T15:14:25;18.83;;;6.53;;
21014;SDS011;19207;-23.482;-46.500;2022-11-20T15:17:12;11.00;;;6.18;;
21014;SDS011;19207;-23.482;-46.500;2022-11-20T15:19:59;12.60;;;6.53;;
21014;SDS011;19207;-23.482;-46.500;2022-11-20T15:22:46;12.10;;;6.30;;
21014;SDS011;19207;-23.482;-46.500;2022-11-20T15:25:33;13.85;;;6.53;;
21014;SDS011;19207;-23.482;-46.500;2022-11-20T15:28:33;13.45;;;6.47;;
21014;SDS011;19207;-23.482;-46.500;2022-11-20T15:31:21;16.90;;;6.22;;
21014;SDS011;19207;-23.482;-46.500;2022-11-20T15:34:13;8.85;;;5.93;;
21014;SDS011;19207;-23.482;-46.500;2022-11-20T15:37:00;12.63;;;5.72;;
21014;SDS011;19207;-23.482;-46.500;2022-11-20T15:39:46;13.55;;;5.78;;
21014;SDS011;19207;-23.482;-46.500;2022-11-20T15:42:33;8.63;;;5.35;;
21014;SDS011;19207;-23.482;-46.500;2022-11-20T15:45:20;10.10;;;5.20;;
21014;SDS011;19207;-23.482;-46.500;2022-11-20T15:51:01;8.07;;;5.20;;
21014;SDS011;19207;-23.482;-46.500;2022-11-20T15:53:49;13.02;;;5.50;;
21014;SDS011;19207;-23.482;-46.500;2022-11-20T15:56:35;12.65;;;5.55;;
21014;SDS011;19207;-23.482;-46.500;2022-11-20T15:59:22;8.40;;;5.30;;
21014;SDS011;19207;-23.482;-46.500;2022-11-20T16:02:13;11.98;;;5.72;;
21014;SDS011;19207;-23.482;-46.500;2022-11-20T16:05:00;12.18;;;5.70;;
21014;SDS011;19207;-23.482;-46.500;2022-11-20T16:07:46;12.00;;;5.68;;
21014;SDS011;19207;-23.482;-46.500;2022-11-20T16:10:33;12.93;;;5.50;;
21014;SDS011;19207;-23.482;-46.500;2022-11-20T16:13:20;9.57;;;5.50;;
21014;SDS011;19207;-23.482;-46.500;2022-11-20T16:16:27;9.75;;;5.30;;
21014;SDS011;19207;-23.482;-46.500;2022-11-20T16:19:14;9.65;;;6.03;;
21014;SDS011;19207;-23.482;-46.500;2022-11-20T16:22:02;13.10;;;5.80;;
21014;SDS011;19207;-23.482;-46.500;2022-11-20T16:24:51;8.70;;;5.43;;
21014;SDS011;19207;-23.482;-46.500;2022-11-20T16:27:37;8.77;;;5.40;;
21014;SDS011;19207;-23.482;-46.500;2022-11-20T16:30:24;11.32;;;5.90;;
21014;SDS011;19207;-23.482;-46.500;2022-11-20T16:33:15;12.73;;;6.12;;
21014;SDS011;19207;-23.482;-46.500;2022-11-20T16:36:12;10.95;;;5.95;;
21014;SDS011;19207;-23.482;-46.500;2022-11-20T16:39:00;12.95;;;6.30;;
21014;SDS011;19207;-23.482;-46.500;2022-11-20T16:41:47;11.60;;;6.30;;
21014;SDS011;19207;-23.482;-46.500;2022-11-20T16:44:33;15.55;;;6.85;;
21014;SDS011;19207;-23.482;-46.500;2022-11-20T16:47:20;12.52;;;6.37;;
21014;SDS011;19207;-23.482;-46.500;2022-11-20T16:50:07;11.27;;;5.70;;
21014;SDS011;19207;-23.482;-46.500;2022-11-20T16:52:54;13.30;;;6.20;;
21014;SDS011;19207;-23.482;-46.500;2022-11-20T16:55:41;15.23;;;6.10;;
21014;SDS011;19207;-23.482;-46.500;2022-11-20T16:58:27;7.28;;;5.25;;
21014;SDS011;19207;-23.482;-46.500;2022-11-20T17:01:15;9.90;;;5.50;;
21014;SDS011;19207;-23.482;-46.500;2022-11-20T17:04:03;15.98;;;5.70;;
21014;SDS011;19207;-23.482;-46.500;2022-11-20T17:06:51;12.02;;;5.93;;
21014;SDS011;19207;-23.482;-46.500;2022-11-20T17:09:38;9.45;;;6.00;;
21014;SDS011;19207;-23.482;-46.500;2022-11-20T17:12:25;10.48;;;5.93;;
21014;SDS011;19207;-23.482;-46.500;2022-11-20T17:15:11;15.90;;;6.68;;
21014;SDS011;19207;-23.482;-46.500;2022-11-20T17:17:58;17.67;;;9.25;;
21014;SDS011;19207;-23.482;-46.500;2022-11-20T17:20:55;22.23;;;8.00;;
21014;SDS011;19207;-23.482;-46.500;2022-11-20T17:23:42;9.20;;;5.18;;
21014;SDS011;19207;-23.482;-46.500;2022-11-20T17:26:29;11.95;;;4.90;;
21014;SDS011;19207;-23.482;-46.500;2022-11-20T17:29:17;15.02;;;5.03;;
21014;SDS011;19207;-23.482;-46.500;2022-11-20T17:35:07;17.70;;;7.43;;
21014;SDS011;19207;-23.482;-46.500;2022-11-20T17:37:54;20.15;;;10.25;;
21014;SDS011;19207;-23.482;-46.500;2022-11-20T17:40:41;19.85;;;10.40;;
21014;SDS011;19207;-23.482;-46.500;2022-11-20T17:43:28;14.18;;;7.35;;